sensor_id;sensor_type;location;lat;lon;timestamp;pressure;altitude;pressure_sealevel;temperature;humidity
57847;BME280;43675;50.030;21.952;2022-11-15T00:00:48;99145.77;;;6.46;76.11
57847;BME280;43675;50.030;21.952;2022-11-15T00:03:16;99153.27;;;6.46;76.13
57847;BME280;43675;50.030;21.952;2022-11-15T00:05:42;99150.91;;;6.47;76.10
57847;BME280;43675;50.030;21.952;2022-11-15T00:08:09;99144.94;;;6.45;76.08
57847;BME280;43675;50.030;21.952;2022-11-15T00:10:34;99149.11;;;6.44;76.05
57847;BME280;43675;50.030;21.952;2022-11-15T00:13:10;99140.47;;;6.42;76.02
57847;BME280;43675;50.030;21.952;2022-11-15T00:15:35;99139.63;;;6.41;76.02
57847;BME280;43675;50.030;21.952;2022-11-15T00:18:00;99138.97;;;6.39;76.02
57847;BME280;43675;50.030;21.952;2022-11-15T00:20:26;99139.33;;;6.36;75.99
57847;BME280;43675;50.030;21.952;2022-11-15T00:22:58;99134.19;;;6.35;76.01
57847;BME280;43675;50.030;21.952;2022-11-15T00:25:24;99125.02;;;6.33;76.03
57847;BME280;43675;50.030;21.952;2022-11-15T00:27:50;99127.02;;;6.31;76.05
57847;BME280;43675;50.030;21.952;2022-11-15T00:30:16;99119.22;;;6.30;76.06
57847;BME280;43675;50.030;21.952;2022-11-15T00:32:41;99121.88;;;6.30;76.03
57847;BME280;43675;50.030;21.952;2022-11-15T00:35:07;99114.55;;;6.28;76.03
57847;BME280;43675;50.030;21.952;2022-11-15T00:37:33;99112.91;;;6.27;76.06
57847;BME280;43675;50.030;21.952;2022-11-15T00:39:58;99111.08;;;6.27;76.08
57847;BME280;43675;50.030;21.952;2022-11-15T00:42:24;99110.75;;;6.26;76.06
57847;BME280;43675;50.030;21.952;2022-11-15T00:44:56;99108.91;;;6.27;76.05
57847;BME280;43675;50.030;21.952;2022-11-15T00:47:22;99105.58;;;6.25;76.05
57847;BME280;43675;50.030;21.952;2022-11-15T00:49:48;99105.25;;;6.24;76.07
57847;BME280;43675;50.030;21.952;2022-11-15T00:52:13;99101.11;;;6.21;76.02
57847;BME280;43675;50.030;21.952;2022-11-15T00:54:46;99100.63;;;6.17;76.04
57847;BME280;43675;50.030;21.952;2022-11-15T00:57:12;99098.62;;;6.15;76.07
57847;BME280;43675;50.030;21.952;2022-11-15T00:59:37;99099.48;;;6.12;76.09
57847;BME280;43675;50.030;21.952;2022-11-15T01:02:03;99095.69;;;6.10;76.08
57847;BME280;43675;50.030;21.952;2022-11-15T01:04:29;99094.72;;;6.07;76.13
57847;BME280;43675;50.030;21.952;2022-11-15T01:06:54;99096.55;;;6.07;76.13
57847;BME280;43675;50.030;21.952;2022-11-15T01:09:20;99092.55;;;6.07;76.12
57847;BME280;43675;50.030;21.952;2022-11-15T01:11:46;99094.87;;;6.06;76.16
57847;BME280;43675;50.030;21.952;2022-11-15T01:14:11;99092.05;;;6.07;76.16
57847;BME280;43675;50.030;21.952;2022-11-15T01:16:37;99092.35;;;6.08;76.22
57847;BME280;43675;50.030;21.952;2022-11-15T01:19:03;99090.86;;;6.10;76.25
57847;BME280;43675;50.030;21.952;2022-11-15T01:21:29;99088.03;;;6.11;76.25
57847;BME280;43675;50.030;21.952;2022-11-15T01:23:55;99083.00;;;6.12;76.26
57847;BME280;43675;50.030;21.952;2022-11-15T01:26:23;99086.70;;;6.11;76.23
57847;BME280;43675;50.030;21.952;2022-11-15T01:28:49;99085.67;;;6.12;76.23
57847;BME280;43675;50.030;21.952;2022-11-15T01:31:17;99082.36;;;6.10;76.24
57847;BME280;43675;50.030;21.952;2022-11-15T01:33:44;99073.70;;;6.08;76.21
57847;BME280;43675;50.030;21.952;2022-11-15T01:36:16;99068.23;;;6.06;76.20
57847;BME280;43675;50.030;21.952;2022-11-15T01:38:39;99064.90;;;6.04;76.21
57847;BME280;43675;50.030;21.952;2022-11-15T01:41:04;99065.09;;;6.02;76.21
57847;BME280;43675;50.030;21.952;2022-11-15T01:43:39;99060.27;;;6.02;76.21
57847;BME280;43675;50.030;21.952;2022-11-15T01:46:18;99061.27;;;6.01;76.29
57847;BME280;43675;50.030;21.952;2022-11-15T01:48:36;99062.09;;;6.01;76.30
57847;BME280;43675;50.030;21.952;2022-11-15T01:51:06;99057.77;;;6.00;76.31
57847;BME280;43675;50.030;21.952;2022-11-15T01:53:32;99055.09;;;6.00;76.29
57847;BME280;43675;50.030;21.952;2022-11-15T01:56:08;99049.61;;;6.02;76.31
57847;BME280;43675;50.030;21.952;2022-11-15T01:58:35;99050.77;;;6.03;76.26
57847;BME280;43675;50.030;21.952;2022-11-15T02:01:01;99053.77;;;6.00;76.29
57847;BME280;43675;50.030;21.952;2022-11-15T02:03:41;99046.61;;;6.01;76.30
57847;BME280;43675;50.030;21.952;2022-11-15T02:06:05;99048.77;;;6.01;76.31
57847;BME280;43675;50.030;21.952;2022-11-15T02:08:31;99045.77;;;6.00;76.32
57847;BME280;43675;50.030;21.952;2022-11-15T02:10:56;99049.77;;;6.00;76.32
57847;BME280;43675;50.030;21.952;2022-11-15T02:13:22;99050.94;;;6.02;76.27
57847;BME280;43675;50.030;21.952;2022-11-15T02:18:34;99043.94;;;6.01;76.19
57847;BME280;43675;50.030;21.952;2022-11-15T02:24:15;99032.50;;;5.92;76.16
57847;BME280;43675;50.030;21.952;2022-11-15T02:41:00;99026.45;;;5.71;76.44
57847;BME280;43675;50.030;21.952;2022-11-15T02:43:45;99025.29;;;5.70;76.44
57847;BME280;43675;50.030;21.952;2022-11-15T02:48:41;99023.17;;;5.61;76.49
57847;BME280;43675;50.030;21.952;2022-11-15T02:51:09;99021.69;;;5.59;76.46
57847;BME280;43675;50.030;21.952;2022-11-15T02:53:35;99022.88;;;5.56;76.52
57847;BME280;43675;50.030;21.952;2022-11-15T02:56:09;99021.22;;;5.55;76.53
57847;BME280;43675;50.030;21.952;2022-11-15T02:58:51;99017.58;;;5.52;76.54
57847;BME280;43675;50.030;21.952;2022-11-15T03:01:24;99014.09;;;5.48;76.56
57847;BME280;43675;50.030;21.952;2022-11-15T03:11:56;99002.50;;;5.41;76.58
57847;BME280;43675;50.030;21.952;2022-11-15T03:19:59;98994.34;;;5.38;76.63
57847;BME280;43675;50.030;21.952;2022-11-15T03:22:29;98993.23;;;5.29;76.74
57847;BME280;43675;50.030;21.952;2022-11-15T03:24:58;98993.23;;;5.29;76.74
57847;BME280;43675;50.030;21.952;2022-11-15T03:27:27;98993.39;;;5.27;76.64
57847;BME280;43675;50.030;21.952;2022-11-15T03:29:59;98994.88;;;5.25;76.63
57847;BME280;43675;50.030;21.952;2022-11-15T03:32:29;98988.09;;;5.23;76.61
57847;BME280;43675;50.030;21.952;2022-11-15T03:35:01;98989.77;;;5.20;76.62
57847;BME280;43675;50.030;21.952;2022-11-15T03:37:34;98977.46;;;5.19;76.67
57847;BME280;43675;50.030;21.952;2022-11-15T03:40:00;98984.30;;;5.17;76.70
57847;BME280;43675;50.030;21.952;2022-11-15T03:42:34;98977.81;;;5.16;76.75
57847;BME280;43675;50.030;21.952;2022-11-15T03:45:22;98972.83;;;5.17;76.79
57847;BME280;43675;50.030;21.952;2022-11-15T03:47:57;98971.66;;;5.15;76.79
57847;BME280;43675;50.030;21.952;2022-11-15T03:50:22;98969.84;;;5.12;76.82
57847;BME280;43675;50.030;21.952;2022-11-15T03:52:49;98968.18;;;5.11;76.82
57847;BME280;43675;50.030;21.952;2022-11-15T03:55:18;98959.86;;;5.10;76.80
57847;BME280;43675;50.030;21.952;2022-11-15T03:57:53;98960.89;;;5.09;76.75
57847;BME280;43675;50.030;21.952;2022-11-15T04:00:20;98959.58;;;5.05;76.73
57847;BME280;43675;50.030;21.952;2022-11-15T04:02:46;98955.11;;;5.01;76.77
57847;BME280;43675;50.030;21.952;2022-11-15T04:05:11;98956.26;;;4.99;76.75
57847;BME280;43675;50.030;21.952;2022-11-15T04:07:37;98959.61;;;4.97;76.77
57847;BME280;43675;50.030;21.952;2022-11-15T04:10:03;98949.95;;;4.96;76.79
57847;BME280;43675;50.030;21.952;2022-11-15T04:12:33;98950.31;;;4.93;76.79
57847;BME280;43675;50.030;21.952;2022-11-15T04:15:08;98946.33;;;4.89;76.78
57847;BME280;43675;50.030;21.952;2022-11-15T04:17:42;98948.51;;;4.85;76.79
57847;BME280;43675;50.030;21.952;2022-11-15T04:20:20;98940.20;;;4.80;76.76
57847;BME280;43675;50.030;21.952;2022-11-15T04:22:46;98939.05;;;4.74;76.71
57847;BME280;43675;50.030;21.952;2022-11-15T04:25:11;98940.74;;;4.67;76.66
57847;BME280;43675;50.030;21.952;2022-11-15T04:27:37;98942.42;;;4.60;76.66
57847;BME280;43675;50.030;21.952;2022-11-15T04:30:04;98935.80;;;4.52;76.65
57847;BME280;43675;50.030;21.952;2022-11-15T04:32:29;98944.46;;;4.46;76.67
57847;BME280;43675;50.030;21.952;2022-11-15T04:34:55;98932.83;;;4.39;76.70
57847;BME280;43675;50.030;21.952;2022-11-15T04:37:21;98932.52;;;4.34;76.78
57847;BME280;43675;50.030;21.952;2022-11-15T04:39:46;98940.84;;;4.31;76.87
57847;BME280;43675;50.030;21.952;2022-11-15T04:42:12;98941.64;;;4.27;76.86
57847;BME280;43675;50.030;21.952;2022-11-15T04:44:45;98942.33;;;4.25;76.90
57847;BME280;43675;50.030;21.952;2022-11-15T04:47:10;98938.19;;;4.19;76.82
57847;BME280;43675;50.030;21.952;2022-11-15T04:49:36;98937.52;;;4.13;76.77
57847;BME280;43675;50.030;21.952;2022-11-15T04:52:01;98941.84;;;4.06;76.80
57847;BME280;43675;50.030;21.952;2022-11-15T04:54:27;98944.84;;;4.03;76.86
57847;BME280;43675;50.030;21.952;2022-11-15T04:56:53;98940.36;;;3.99;76.90
57847;BME280;43675;50.030;21.952;2022-11-15T04:59:25;98937.52;;;3.97;76.92
57847;BME280;43675;50.030;21.952;2022-11-15T05:01:51;98934.22;;;3.95;76.90
57847;BME280;43675;50.030;21.952;2022-11-15T05:04:17;98937.21;;;3.92;76.94
57847;BME280;43675;50.030;21.952;2022-11-15T05:06:42;98933.87;;;3.90;76.95
57847;BME280;43675;50.030;21.952;2022-11-15T05:09:08;98926.74;;;3.86;76.95
57847;BME280;43675;50.030;21.952;2022-11-15T05:11:34;98922.11;;;3.84;76.97
57847;BME280;43675;50.030;21.952;2022-11-15T05:13:59;98924.58;;;3.81;76.96
57847;BME280;43675;50.030;21.952;2022-11-15T05:16:25;98920.10;;;3.78;76.95
57847;BME280;43675;50.030;21.952;2022-11-15T05:18:53;98914.30;;;3.74;76.99
57847;BME280;43675;50.030;21.952;2022-11-15T05:21:19;98917.29;;;3.71;76.99
57847;BME280;43675;50.030;21.952;2022-11-15T05:23:45;98908.83;;;3.68;76.99
57847;BME280;43675;50.030;21.952;2022-11-15T05:26:11;98906.48;;;3.65;77.01
57847;BME280;43675;50.030;21.952;2022-11-15T05:28:37;98904.66;;;3.61;77.05
57847;BME280;43675;50.030;21.952;2022-11-15T05:31:11;98897.03;;;3.58;77.09
57847;BME280;43675;50.030;21.952;2022-11-15T05:33:39;98894.38;;;3.58;77.11
57847;BME280;43675;50.030;21.952;2022-11-15T05:36:27;98891.72;;;3.54;77.12
57847;BME280;43675;50.030;21.952;2022-11-15T05:38:53;98886.75;;;3.51;77.16
57847;BME280;43675;50.030;21.952;2022-11-15T05:41:21;98889.25;;;3.49;77.16
57847;BME280;43675;50.030;21.952;2022-11-15T05:43:48;98886.41;;;3.46;77.15
57847;BME280;43675;50.030;21.952;2022-11-15T05:46:22;98888.41;;;3.44;77.15
57847;BME280;43675;50.030;21.952;2022-11-15T05:48:49;98886.40;;;3.42;77.15
57847;BME280;43675;50.030;21.952;2022-11-15T05:51:17;98884.23;;;3.42;77.16
57847;BME280;43675;50.030;21.952;2022-11-15T05:53:45;98890.71;;;3.39;77.18
57847;BME280;43675;50.030;21.952;2022-11-15T05:56:11;98883.42;;;3.37;77.20
57847;BME280;43675;50.030;21.952;2022-11-15T05:58:44;98888.05;;;3.35;77.23
57847;BME280;43675;50.030;21.952;2022-11-15T06:01:10;98883.23;;;3.34;77.31
57847;BME280;43675;50.030;21.952;2022-11-15T06:03:36;98888.20;;;3.33;77.36
57847;BME280;43675;50.030;21.952;2022-11-15T06:06:02;98886.73;;;3.35;77.40
57847;BME280;43675;50.030;21.952;2022-11-15T06:08:27;98879.11;;;3.36;77.42
57847;BME280;43675;50.030;21.952;2022-11-15T06:10:53;98876.27;;;3.38;77.41
57847;BME280;43675;50.030;21.952;2022-11-15T06:13:19;98875.97;;;3.41;77.39
57847;BME280;43675;50.030;21.952;2022-11-15T06:15:44;98880.59;;;3.43;77.35
57847;BME280;43675;50.030;21.952;2022-11-15T06:18:10;98877.80;;;3.44;77.34
57847;BME280;43675;50.030;21.952;2022-11-15T06:20:36;98881.59;;;3.46;77.33
57847;BME280;43675;50.030;21.952;2022-11-15T06:23:07;98883.41;;;3.45;77.34
57847;BME280;43675;50.030;21.952;2022-11-15T06:25:33;98880.11;;;3.47;77.41
57847;BME280;43675;50.030;21.952;2022-11-15T06:27:59;98884.25;;;3.50;77.37
57847;BME280;43675;50.030;21.952;2022-11-15T06:30:26;98875.30;;;3.51;77.33
57847;BME280;43675;50.030;21.952;2022-11-15T06:33:00;98875.45;;;3.53;77.35
57847;BME280;43675;50.030;21.952;2022-11-15T06:35:27;98870.83;;;3.55;77.32
57847;BME280;43675;50.030;21.952;2022-11-15T06:37:53;98873.30;;;3.57;77.33
57847;BME280;43675;50.030;21.952;2022-11-15T06:40:18;98867.19;;;3.56;77.24
57847;BME280;43675;50.030;21.952;2022-11-15T06:42:51;98867.84;;;3.58;77.24
57847;BME280;43675;50.030;21.952;2022-11-15T06:45:18;98865.68;;;3.58;77.28
57847;BME280;43675;50.030;21.952;2022-11-15T06:47:46;98873.48;;;3.59;77.27
57847;BME280;43675;50.030;21.952;2022-11-15T06:50:12;98869.32;;;3.61;77.23
57847;BME280;43675;50.030;21.952;2022-11-15T06:52:44;98868.83;;;3.61;77.21
57847;BME280;43675;50.030;21.952;2022-11-15T06:55:09;98871.33;;;3.63;77.21
57847;BME280;43675;50.030;21.952;2022-11-15T06:57:36;98870.16;;;3.61;77.27
57847;BME280;43675;50.030;21.952;2022-11-15T07:00:04;98872.50;;;3.64;77.32
57847;BME280;43675;50.030;21.952;2022-11-15T07:02:30;98867.20;;;3.68;77.42
57847;BME280;43675;50.030;21.952;2022-11-15T07:04:56;98868.49;;;3.72;77.51
57847;BME280;43675;50.030;21.952;2022-11-15T07:07:21;98870.84;;;3.79;77.62
57847;BME280;43675;50.030;21.952;2022-11-15T07:09:47;98868.83;;;3.86;77.69
57847;BME280;43675;50.030;21.952;2022-11-15T07:12:12;98867.50;;;3.94;77.76
57847;BME280;43675;50.030;21.952;2022-11-15T07:14:38;98861.68;;;4.02;77.83
57847;BME280;43675;50.030;21.952;2022-11-15T07:17:04;98864.33;;;4.10;77.86
57847;BME280;43675;50.030;21.952;2022-11-15T07:19:31;98860.97;;;4.20;77.97
57847;BME280;43675;50.030;21.952;2022-11-15T07:21:56;98866.11;;;4.30;78.01
57847;BME280;43675;50.030;21.952;2022-11-15T07:24:22;98862.75;;;4.40;78.03
57847;BME280;43675;50.030;21.952;2022-11-15T07:26:47;98858.23;;;4.49;78.04
57847;BME280;43675;50.030;21.952;2022-11-15T07:29:13;98858.86;;;4.59;78.05
57847;BME280;43675;50.030;21.952;2022-11-15T07:31:39;98850.35;;;4.67;78.09
57847;BME280;43675;50.030;21.952;2022-11-15T07:34:04;98849.16;;;4.78;78.08
57847;BME280;43675;50.030;21.952;2022-11-15T07:36:30;98849.92;;;4.87;78.11
57847;BME280;43675;50.030;21.952;2022-11-15T07:38:56;98848.73;;;4.97;78.11
57847;BME280;43675;50.030;21.952;2022-11-15T07:41:28;98843.86;;;5.05;78.07
57847;BME280;43675;50.030;21.952;2022-11-15T07:43:54;98845.15;;;5.13;78.09
57847;BME280;43675;50.030;21.952;2022-11-15T07:46:20;98839.41;;;5.24;78.13
57847;BME280;43675;50.030;21.952;2022-11-15T07:48:45;98828.02;;;5.34;78.18
57847;BME280;43675;50.030;21.952;2022-11-15T07:51:12;98835.59;;;5.45;78.17
57847;BME280;43675;50.030;21.952;2022-11-15T07:53:45;98831.37;;;5.55;78.15
57847;BME280;43675;50.030;21.952;2022-11-15T07:56:11;98831.44;;;5.65;78.13
57847;BME280;43675;50.030;21.952;2022-11-15T07:58:37;98829.20;;;5.73;78.14
57847;BME280;43675;50.030;21.952;2022-11-15T08:01:10;98830.62;;;5.84;78.16
57847;BME280;43675;50.030;21.952;2022-11-15T08:03:35;98822.73;;;5.94;78.13
57847;BME280;43675;50.030;21.952;2022-11-15T08:06:02;98828.44;;;6.06;78.13
57847;BME280;43675;50.030;21.952;2022-11-15T08:08:28;98825.32;;;6.17;78.10
57847;BME280;43675;50.030;21.952;2022-11-15T08:10:54;98814.20;;;6.28;78.12
57847;BME280;43675;50.030;21.952;2022-11-15T08:13:19;98808.73;;;6.40;78.05
57847;BME280;43675;50.030;21.952;2022-11-15T08:15:45;98807.96;;;6.50;78.02
57847;BME280;43675;50.030;21.952;2022-11-15T08:18:17;98810.77;;;6.63;78.00
57847;BME280;43675;50.030;21.952;2022-11-15T08:20:43;98810.30;;;6.75;77.95
57847;BME280;43675;50.030;21.952;2022-11-15T08:23:11;98798.84;;;6.85;77.84
57847;BME280;43675;50.030;21.952;2022-11-15T08:25:37;98797.52;;;6.95;77.73
57847;BME280;43675;50.030;21.952;2022-11-15T08:28:06;98798.56;;;7.05;77.62
57847;BME280;43675;50.030;21.952;2022-11-15T08:30:34;98793.72;;;7.15;77.47
57847;BME280;43675;50.030;21.952;2022-11-15T08:33:00;98794.26;;;7.25;77.36
57847;BME280;43675;50.030;21.952;2022-11-15T08:35:26;98792.77;;;7.33;77.25
57847;BME280;43675;50.030;21.952;2022-11-15T08:37:52;98783.30;;;7.41;77.13
57847;BME280;43675;50.030;21.952;2022-11-15T08:40:18;98783.81;;;7.51;76.94
57847;BME280;43675;50.030;21.952;2022-11-15T08:42:46;98778.95;;;7.61;76.83
57847;BME280;43675;50.030;21.952;2022-11-15T08:45:18;98777.80;;;7.71;76.67
57847;BME280;43675;50.030;21.952;2022-11-15T08:47:44;98779.62;;;7.81;76.49
57847;BME280;43675;50.030;21.952;2022-11-15T08:50:09;98778.78;;;7.91;76.42
57847;BME280;43675;50.030;21.952;2022-11-15T08:52:35;98770.41;;;8.00;76.26
57847;BME280;43675;50.030;21.952;2022-11-15T08:55:01;98767.50;;;8.13;76.04
57847;BME280;43675;50.030;21.952;2022-11-15T08:57:33;98762.14;;;8.23;75.77
57847;BME280;43675;50.030;21.952;2022-11-15T08:59:59;98756.45;;;8.33;75.46
57847;BME280;43675;50.030;21.952;2022-11-15T09:02:25;98755.05;;;8.43;75.15
57847;BME280;43675;50.030;21.952;2022-11-15T09:04:50;98749.16;;;8.54;74.87
57847;BME280;43675;50.030;21.952;2022-11-15T09:07:16;98747.23;;;8.66;74.64
57847;BME280;43675;50.030;21.952;2022-11-15T09:09:42;98739.13;;;8.76;74.39
57847;BME280;43675;50.030;21.952;2022-11-15T09:12:08;98738.86;;;8.88;74.06
57847;BME280;43675;50.030;21.952;2022-11-15T09:14:34;98728.90;;;8.99;73.83
57847;BME280;43675;50.030;21.952;2022-11-15T09:17:00;98720.58;;;9.12;73.61
57847;BME280;43675;50.030;21.952;2022-11-15T09:19:33;98722.65;;;9.23;73.39
57847;BME280;43675;50.030;21.952;2022-11-15T09:21:58;98716.91;;;9.32;73.11
57847;BME280;43675;50.030;21.952;2022-11-15T09:24:24;98720.91;;;9.45;72.90
57847;BME280;43675;50.030;21.952;2022-11-15T09:26:52;98716.06;;;9.58;72.60
57847;BME280;43675;50.030;21.952;2022-11-15T09:29:24;98713.07;;;9.70;72.26
57847;BME280;43675;50.030;21.952;2022-11-15T09:31:52;98712.23;;;9.83;72.01
57847;BME280;43675;50.030;21.952;2022-11-15T09:34:24;98704.89;;;9.94;71.71
57847;BME280;43675;50.030;21.952;2022-11-15T09:36:50;98710.74;;;10.07;71.43
57847;BME280;43675;50.030;21.952;2022-11-15T09:39:15;98699.08;;;10.17;71.22
57847;BME280;43675;50.030;21.952;2022-11-15T09:44:42;98690.64;;;10.42;70.75
57847;BME280;43675;50.030;21.952;2022-11-15T09:47:29;98691.82;;;10.53;70.53
57847;BME280;43675;50.030;21.952;2022-11-15T09:49:54;98692.72;;;10.62;70.30
57847;BME280;43675;50.030;21.952;2022-11-15T09:52:21;98683.47;;;10.74;70.10
57847;BME280;43675;50.030;21.952;2022-11-15T09:54:49;98672.04;;;10.85;69.86
57847;BME280;43675;50.030;21.952;2022-11-15T09:57:18;98668.66;;;10.96;69.60
57847;BME280;43675;50.030;21.952;2022-11-15T10:02:33;98663.97;;;11.16;69.14
57847;BME280;43675;50.030;21.952;2022-11-15T10:04:57;98662.39;;;11.18;69.79
57847;BME280;43675;50.030;21.952;2022-11-15T10:07:53;98660.13;;;11.30;68.99
57847;BME280;43675;50.030;21.952;2022-11-15T10:10:27;98662.33;;;11.40;68.53
57847;BME280;43675;50.030;21.952;2022-11-15T10:13:00;98661.37;;;11.44;68.45
57847;BME280;43675;50.030;21.952;2022-11-15T10:15:26;98656.69;;;11.48;68.08
57847;BME280;43675;50.030;21.952;2022-11-15T10:20:48;98652.58;;;11.55;67.29
57847;BME280;43675;50.030;21.952;2022-11-15T10:23:17;98652.20;;;11.51;67.28
57847;BME280;43675;50.030;21.952;2022-11-15T10:26:00;98650.17;;;11.47;67.19
57847;BME280;43675;50.030;21.952;2022-11-15T10:28:28;98649.28;;;11.44;66.97
57847;BME280;43675;50.030;21.952;2022-11-15T10:30:59;98643.00;;;11.41;66.82
57847;BME280;43675;50.030;21.952;2022-11-15T10:38:53;98630.88;;;11.31;66.88
57847;BME280;43675;50.030;21.952;2022-11-15T10:41:35;98628.64;;;11.28;66.96
57847;BME280;43675;50.030;21.952;2022-11-15T10:44:25;98625.65;;;11.27;66.98
57847;BME280;43675;50.030;21.952;2022-11-15T10:49:27;98613.87;;;11.28;67.03
57847;BME280;43675;50.030;21.952;2022-11-15T10:52:15;98617.00;;;11.34;66.89
57847;BME280;43675;50.030;21.952;2022-11-15T10:59:45;98613.61;;;11.55;66.36
57847;BME280;43675;50.030;21.952;2022-11-15T11:02:35;98614.97;;;11.64;66.13
57847;BME280;43675;50.030;21.952;2022-11-15T11:05:24;98612.61;;;11.74;66.04
57847;BME280;43675;50.030;21.952;2022-11-15T11:07:36;98603.94;;;11.81;65.95
57847;BME280;43675;50.030;21.952;2022-11-15T11:12:41;98607.02;;;12.03;65.51
57847;BME280;43675;50.030;21.952;2022-11-15T11:15:12;98605.37;;;12.11;65.40
57847;BME280;43675;50.030;21.952;2022-11-15T11:20:39;98598.87;;;12.39;64.71
57847;BME280;43675;50.030;21.952;2022-11-15T11:23:34;98584.72;;;12.53;64.29
57847;BME280;43675;50.030;21.952;2022-11-15T11:26:38;98580.91;;;12.72;63.86
57847;BME280;43675;50.030;21.952;2022-11-15T11:32:02;98571.23;;;13.15;63.44
57847;BME280;43675;50.030;21.952;2022-11-15T11:37:37;98558.27;;;13.49;62.55
57847;BME280;43675;50.030;21.952;2022-11-15T11:48:14;98539.94;;;14.00;61.84
57847;BME280;43675;50.030;21.952;2022-11-15T11:50:42;98533.97;;;14.12;61.68
57847;BME280;43675;50.030;21.952;2022-11-15T11:53:36;98526.61;;;14.22;61.42
57847;BME280;43675;50.030;21.952;2022-11-15T11:56:14;98528.44;;;14.33;61.12
57847;BME280;43675;50.030;21.952;2022-11-15T11:58:38;98519.88;;;14.36;60.88
57847;BME280;43675;50.030;21.952;2022-11-15T12:01:25;98513.20;;;14.39;60.52
57847;BME280;43675;50.030;21.952;2022-11-15T12:04:05;98512.94;;;14.40;60.15
57847;BME280;43675;50.030;21.952;2022-11-15T12:06:36;98507.50;;;14.38;59.85
57847;BME280;43675;50.030;21.952;2022-11-15T12:09:19;98504.50;;;14.37;59.65
57847;BME280;43675;50.030;21.952;2022-11-15T12:14:57;98494.00;;;14.38;59.18
57847;BME280;43675;50.030;21.952;2022-11-15T12:17:29;98476.62;;;14.34;59.20
57847;BME280;43675;50.030;21.952;2022-11-15T12:20:05;98482.34;;;14.35;59.28
57847;BME280;43675;50.030;21.952;2022-11-15T12:22:36;98481.78;;;14.35;59.15
57847;BME280;43675;50.030;21.952;2022-11-15T12:25:41;98479.64;;;14.35;58.95
57847;BME280;43675;50.030;21.952;2022-11-15T12:27:47;98475.03;;;14.35;58.86
57847;BME280;43675;50.030;21.952;2022-11-15T12:30:14;98471.55;;;14.35;58.71
57847;BME280;43675;50.030;21.952;2022-11-15T12:32:49;98469.87;;;14.34;58.70
57847;BME280;43675;50.030;21.952;2022-11-15T12:38:00;98470.39;;;14.33;58.46
57847;BME280;43675;50.030;21.952;2022-11-15T12:40:31;98463.55;;;14.28;58.54
57847;BME280;43675;50.030;21.952;2022-11-15T12:45:44;98455.98;;;14.28;58.31
57847;BME280;43675;50.030;21.952;2022-11-15T12:50:55;98446.17;;;14.21;58.53
57847;BME280;43675;50.030;21.952;2022-11-15T12:53:26;98446.40;;;14.20;58.52
57847;BME280;43675;50.030;21.952;2022-11-15T12:58:53;98446.86;;;14.14;58.48
57847;BME280;43675;50.030;21.952;2022-11-15T13:07:03;98433.46;;;14.05;58.59
57847;BME280;43675;50.030;21.952;2022-11-15T13:12:10;98426.77;;;13.94;58.73
57847;BME280;43675;50.030;21.952;2022-11-15T13:14:54;98418.34;;;13.90;58.71
57847;BME280;43675;50.030;21.952;2022-11-15T13:22:47;98424.36;;;13.81;58.91
57847;BME280;43675;50.030;21.952;2022-11-15T13:28:03;98425.30;;;13.72;59.07
57847;BME280;43675;50.030;21.952;2022-11-15T13:30:31;98424.14;;;13.68;59.06
57847;BME280;43675;50.030;21.952;2022-11-15T13:32:59;98425.67;;;13.64;59.11
57847;BME280;43675;50.030;21.952;2022-11-15T13:35:28;98426.73;;;13.63;59.08
57847;BME280;43675;50.030;21.952;2022-11-15T13:37:55;98422.05;;;13.58;59.15
57847;BME280;43675;50.030;21.952;2022-11-15T13:40:33;98424.70;;;13.56;59.29
57847;BME280;43675;50.030;21.952;2022-11-15T13:42:57;98422.42;;;13.50;59.41
57847;BME280;43675;50.030;21.952;2022-11-15T13:45:23;98422.91;;;13.47;59.48
57847;BME280;43675;50.030;21.952;2022-11-15T13:47:54;98420.14;;;13.45;59.33
57847;BME280;43675;50.030;21.952;2022-11-15T13:50:24;98422.50;;;13.41;59.27
57847;BME280;43675;50.030;21.952;2022-11-15T13:52:49;98416.50;;;13.37;59.22
57847;BME280;43675;50.030;21.952;2022-11-15T13:55:18;98412.64;;;13.33;59.04
57847;BME280;43675;50.030;21.952;2022-11-15T13:57:53;98405.54;;;13.29;58.96
57847;BME280;43675;50.030;21.952;2022-11-15T14:00:35;98399.24;;;13.23;58.80
57847;BME280;43675;50.030;21.952;2022-11-15T14:03:23;98399.66;;;13.18;58.82
57847;BME280;43675;50.030;21.952;2022-11-15T14:06:10;98405.70;;;13.11;58.80
57847;BME280;43675;50.030;21.952;2022-11-15T14:11:21;98404.18;;;12.92;58.86
57847;BME280;43675;50.030;21.952;2022-11-15T14:16:36;98400.28;;;12.73;59.00
57847;BME280;43675;50.030;21.952;2022-11-15T14:19:05;98403.20;;;12.60;59.12
57847;BME280;43675;50.030;21.952;2022-11-15T14:22:07;98399.73;;;12.51;59.07
57847;BME280;43675;50.030;21.952;2022-11-15T14:24:19;98402.97;;;12.39;59.16
57847;BME280;43675;50.030;21.952;2022-11-15T14:26:45;98406.38;;;12.25;59.18
57847;BME280;43675;50.030;21.952;2022-11-15T14:29:29;98405.84;;;12.14;59.24
57847;BME280;43675;50.030;21.952;2022-11-15T14:32:14;98409.08;;;12.04;59.34
57847;BME280;43675;50.030;21.952;2022-11-15T14:34:41;98397.72;;;11.91;59.46
57847;BME280;43675;50.030;21.952;2022-11-15T14:37:18;98396.19;;;11.74;59.67
57847;BME280;43675;50.030;21.952;2022-11-15T14:39:42;98391.88;;;11.64;59.77
57847;BME280;43675;50.030;21.952;2022-11-15T14:42:09;98393.16;;;11.52;59.93
57847;BME280;43675;50.030;21.952;2022-11-15T14:44:35;98391.83;;;11.43;59.92
57847;BME280;43675;50.030;21.952;2022-11-15T14:47:00;98388.69;;;11.37;59.93
57847;BME280;43675;50.030;21.952;2022-11-15T14:49:26;98390.49;;;11.34;59.91
57847;BME280;43675;50.030;21.952;2022-11-15T14:51:51;98395.28;;;11.32;59.86
57847;BME280;43675;50.030;21.952;2022-11-15T14:54:17;98388.57;;;11.32;59.88
57847;BME280;43675;50.030;21.952;2022-11-15T14:56:43;98389.09;;;11.31;59.88
57847;BME280;43675;50.030;21.952;2022-11-15T14:59:08;98384.39;;;11.27;59.93
57847;BME280;43675;50.030;21.952;2022-11-15T15:01:41;98388.51;;;11.20;60.12